Time;durP1;ratioP1;P1;durP2;ratioP2;P2;SDS_P1;SDS_P2;PMS_P1;PMS_P2;Temp;Humidity;BMP_temperature;BMP_pressure;BME280_temperature;BME280_humidity;BME280_pressure;Samples;Min_cycle;Max_cycle;Signal;HPM_P1;HPM_P2
2022/11/23 00:02:06;;;;;;;8.53;3.00;;;7.40;99.90;;;7.86;100.00;96595.63;4991653;28;20478;-82
2022/11/23 00:04:35;;;;;;;7.80;2.57;;;7.40;99.90;;;7.86;100.00;96590.44;4986117;28;20813;-81
2022/11/23 00:07:05;;;;;;;10.80;2.60;;;7.40;99.90;;;7.86;100.00;96597.44;4988423;28;20559;-82
2022/11/23 00:09:35;;;;;;;10.00;2.70;;;7.30;99.90;;;7.83;100.00;96597.84;4997915;28;20468;-81
2022/11/23 00:12:08;;;;;;;9.17;2.43;;;7.30;99.90;;;7.84;100.00;96596.84;4997313;28;20489;-81
2022/11/23 00:14:37;;;;;;;15.97;3.20;;;7.30;99.90;;;7.81;100.00;96599.88;4993034;28;20491;-82
2022/11/23 00:17:07;;;;;;;11.60;3.93;;;7.20;99.90;;;7.85;100.00;96594.03;4991721;28;20567;-82
2022/11/23 00:19:38;;;;;;;8.50;3.80;;;7.40;99.90;;;7.85;100.00;96598.44;4992696;28;20466;-81
2022/11/23 00:22:08;;;;;;;7.73;2.67;;;7.30;99.90;;;7.86;100.00;96598.25;4992664;28;20495;-82
2022/11/23 00:24:38;;;;;;;17.20;3.57;;;7.40;99.90;;;7.83;100.00;96596.06;4987758;28;20460;-82
2022/11/23 00:27:10;;;;;;;8.20;3.20;;;7.30;99.90;;;7.85;100.00;96596.63;4996632;28;20832;-81
2022/11/23 00:29:39;;;;;;;10.53;2.67;;;7.30;99.90;;;7.86;100.00;96597.44;4998466;28;20462;-82
2022/11/23 00:32:09;;;;;;;12.40;2.93;;;7.30;99.90;;;7.85;100.00;96593.22;4991965;28;20530;-81
2022/11/23 00:34:39;;;;;;;14.20;2.40;;;7.30;99.90;;;7.87;100.00;96599.03;4990639;28;20470;-81
2022/11/23 00:37:08;;;;;;;8.10;2.43;;;7.30;99.90;;;7.89;100.00;96602.22;4990145;28;20928;-81
2022/11/23 00:39:38;;;;;;;8.33;2.57;;;7.40;99.90;;;7.88;100.00;96596.22;4990441;28;20912;-81
2022/11/23 00:42:08;;;;;;;6.93;3.03;;;7.50;99.90;;;7.88;100.00;96611.06;4990066;28;20472;-81
2022/11/23 00:44:38;;;;;;;12.07;2.63;;;7.40;99.90;;;7.85;100.00;96601.03;4996197;28;20471;-81
2022/11/23 00:47:08;;;;;;;8.93;2.47;;;7.30;99.90;;;7.86;100.00;96605.25;4997493;28;20509;-82
2022/11/23 00:49:37;;;;;;;9.77;2.40;;;7.30;99.90;;;7.87;100.00;96612.06;4996832;28;20506;-82
2022/11/23 00:52:08;;;;;;;7.90;2.60;;;7.30;99.90;;;7.86;100.00;96613.84;4996148;28;20546;-81
2022/11/23 00:54:39;;;;;;;11.13;3.40;;;7.40;99.90;;;7.86;100.00;96613.84;4998858;28;20522;-81
2022/11/23 00:57:09;;;;;;;6.30;2.63;;;7.40;99.90;;;7.83;100.00;96616.06;4997352;28;20494;-82
2022/11/23 00:59:39;;;;;;;8.67;2.90;;;7.30;99.90;;;7.84;100.00;96612.47;4993372;28;20467;-82
2022/11/23 01:02:08;;;;;;;7.93;3.40;;;7.40;99.90;;;7.85;100.00;96616.66;4992260;28;20523;-81
2022/11/23 01:04:40;;;;;;;11.47;2.83;;;7.40;99.90;;;7.86;100.00;96618.25;4997300;28;20475;-81
2022/11/23 01:07:11;;;;;;;8.83;2.63;;;7.40;99.90;;;7.84;100.00;96622.88;4993839;28;20550;-81
2022/11/23 01:09:41;;;;;;;14.70;2.97;;;7.30;99.90;;;7.85;100.00;96627.06;4996111;28;20472;-83
2022/11/23 01:12:12;;;;;;;13.70;2.87;;;7.30;99.90;;;7.87;100.00;96630.25;4992166;28;20482;-81
2022/11/23 01:14:43;;;;;;;13.00;2.53;;;7.30;99.90;;;7.88;100.00;96629.28;4996995;28;20473;-81
2022/11/23 01:17:13;;;;;;;9.83;2.93;;;7.20;99.90;;;7.84;100.00;96630.69;4994410;28;20503;-81
2022/11/23 01:19:42;;;;;;;8.43;3.07;;;7.30;99.90;;;7.83;100.00;96629.06;4990321;28;20917;-81
2022/11/23 01:22:12;;;;;;;7.30;3.13;;;7.30;99.90;;;7.81;100.00;96631.09;4991716;28;20582;-81
2022/11/23 01:24:43;;;;;;;15.47;3.13;;;7.20;99.90;;;7.86;100.00;96633.88;4990360;28;20467;-81
2022/11/23 01:27:13;;;;;;;13.03;2.63;;;7.30;99.90;;;7.86;100.00;96633.88;4994549;28;20471;-81
2022/11/23 01:29:43;;;;;;;12.23;3.30;;;7.30;99.90;;;7.85;100.00;96634.84;4992391;28;20503;-82
2022/11/23 01:32:13;;;;;;;14.50;2.97;;;7.40;99.90;;;7.87;100.00;96632.88;4994468;28;20503;-82
2022/11/23 01:34:43;;;;;;;23.37;3.07;;;7.40;99.90;;;7.87;100.00;96635.47;4995269;28;20459;-82
2022/11/23 01:37:13;;;;;;;5.47;2.70;;;7.40;99.90;;;7.88;100.00;96639.69;4996022;28;20549;-81
2022/11/23 01:39:42;;;;;;;7.43;2.33;;;7.40;99.90;;;7.87;100.00;96630.25;4992711;28;20479;-81
2022/11/23 01:42:14;;;;;;;15.73;2.87;;;7.30;99.90;;;7.87;100.00;96635.47;4995414;28;20468;-82
2022/11/23 01:44:46;;;;;;;16.53;3.90;;;7.40;99.90;;;7.87;100.00;96636.28;4993151;28;20506;-82
2022/11/23 01:47:17;;;;;;;15.93;3.27;;;7.40;99.90;;;7.88;100.00;96640.44;4992020;28;20462;-81
2022/11/23 01:49:52;;;;;;;15.40;2.80;;;7.50;99.90;;;7.86;100.00;96634.66;4995867;28;20467;-81
2022/11/23 01:52:25;;;;;;;15.97;2.90;;;7.40;99.90;;;7.84;100.00;96641.09;4995190;28;20530;-81
2022/11/23 01:54:59;;;;;;;13.63;2.90;;;7.40;99.90;;;7.87;100.00;96643.28;4995472;28;20472;-82
2022/11/23 01:57:44;;;;;;;13.83;2.87;;;7.40;99.90;;;7.86;100.00;96645.06;4989535;28;21053;-82
2022/11/23 02:00:16;;;;;;;9.20;3.10;;;7.40;99.90;;;7.87;100.00;96641.47;4992990;28;20546;-81
2022/11/23 02:02:53;;;;;;;6.07;2.30;;;7.50;99.90;;;7.84;100.00;96636.69;4992030;28;20674;-81
2022/11/23 02:05:30;;;;;;;13.13;2.97;;;7.50;99.90;;;7.85;100.00;96638.25;4993180;28;21258;-82
2022/11/23 02:08:03;;;;;;;14.03;3.30;;;7.40;99.90;;;7.84;100.00;96639.28;4989128;28;20494;-82
2022/11/23 02:10:33;;;;;;;15.47;3.03;;;7.40;99.90;;;7.81;100.00;96639.66;4992619;28;20471;-81
2022/11/23 02:13:10;;;;;;;10.40;3.03;;;7.40;99.90;;;7.83;100.00;96634.28;4992178;28;20491;-81
2022/11/23 02:15:42;;;;;;;10.50;3.33;;;7.40;99.90;;;7.83;100.00;96634.28;4989516;28;20471;-81
2022/11/23 02:18:19;;;;;;;9.40;3.33;;;7.40;99.90;;;7.79;100.00;96643.50;4990762;28;20479;-81
2022/11/23 02:20:53;;;;;;;19.53;3.90;;;7.40;99.90;;;7.81;100.00;96636.28;4991229;28;20470;-81
2022/11/23 02:23:36;;;;;;;11.67;3.10;;;7.40;99.90;;;7.84;100.00;96646.28;4988997;28;20472;-81
2022/11/23 02:26:13;;;;;;;14.50;3.00;;;7.40;99.90;;;7.84;100.00;96641.91;4989298;28;20641;-82
2022/11/23 02:28:49;;;;;;;4.80;2.13;;;7.30;99.90;;;7.86;100.00;96633.88;4990244;28;20467;-81
2022/11/23 02:31:19;;;;;;;10.37;2.73;;;7.40;99.90;;;7.87;100.00;96632.88;4995048;28;20538;-82
2022/11/23 02:33:48;;;;;;;11.50;3.00;;;7.40;99.90;;;7.89;100.00;96633.44;4988940;28;20464;-82
2022/11/23 02:36:37;;;;;;;7.03;2.97;;;7.50;99.90;;;7.86;100.00;96624.25;4992010;28;20987;-82
2022/11/23 02:39:11;;;;;;;7.73;3.03;;;7.40;99.90;;;7.85;100.00;96629.66;4990491;28;20468;-82
2022/11/23 02:41:46;;;;;;;11.30;2.73;;;7.40;99.90;;;7.83;100.00;96624.66;4991856;28;20915;-81
2022/11/23 02:44:31;;;;;;;8.37;2.77;;;7.40;99.90;;;7.84;100.00;96635.88;4987553;28;20468;-81
2022/11/23 02:47:01;;;;;;;8.63;3.07;;;7.40;99.90;;;7.84;100.00;96631.47;4991981;28;20471;-82
2022/11/23 02:49:31;;;;;;;9.20;3.40;;;7.40;99.90;;;7.87;100.00;96625.88;4993554;28;20470;-82
2022/11/23 02:52:01;;;;;;;3.73;2.27;;;7.40;99.90;;;7.88;100.00;96631.88;4992016;28;20510;-81
2022/11/23 02:54:31;;;;;;;7.70;2.50;;;7.40;99.90;;;7.88;100.00;96626.66;4993162;28;21017;-82
2022/11/23 02:57:03;;;;;;;8.73;2.63;;;7.50;99.90;;;7.87;100.00;96628.47;4998481;28;20522;-82
2022/11/23 02:59:33;;;;;;;6.47;3.07;;;7.40;99.90;;;7.84;100.00;96631.47;4995641;28;20478;-81
2022/11/23 03:02:05;;;;;;;11.23;2.70;;;7.40;99.90;;;7.84;100.00;96634.09;4994058;28;20476;-82
2022/11/23 03:04:34;;;;;;;4.90;2.10;;;7.30;99.90;;;7.85;100.00;96630.47;4993648;28;20469;-81
2022/11/23 03:07:04;;;;;;;13.07;3.43;;;7.40;99.90;;;7.85;100.00;96633.06;4995839;28;20475;-82
2022/11/23 03:09:34;;;;;;;11.03;3.00;;;7.30;99.90;;;7.85;100.00;96640.06;4994287;28;20489;-82
2022/11/23 03:12:06;;;;;;;7.80;2.93;;;7.30;99.90;;;7.86;100.00;96641.66;4991444;28;20478;-82
2022/11/23 03:14:38;;;;;;;10.13;3.30;;;7.40;99.90;;;7.85;100.00;96642.66;4993246;28;20993;-82
2022/11/23 03:17:09;;;;;;;17.97;3.00;;;7.40;99.90;;;7.84;100.00;96649.69;4993266;28;20855;-81
2022/11/23 03:19:39;;;;;;;8.67;3.03;;;7.30;99.90;;;7.86;100.00;96634.66;4991210;28;20474;-81
2022/11/23 03:22:09;;;;;;;9.37;3.03;;;7.40;99.90;;;7.85;100.00;96645.25;4992441;28;20501;-81
2022/11/23 03:24:38;;;;;;;11.00;2.67;;;7.30;99.90;;;7.87;100.00;96641.47;4995580;28;20958;-82
2022/11/23 03:27:09;;;;;;;9.07;2.73;;;7.30;99.90;;;7.88;100.00;96645.66;4991758;28;20459;-82
2022/11/23 03:29:37;;;;;;;7.50;2.80;;;7.40;99.90;;;7.85;100.00;96648.69;4992418;28;20467;-82
2022/11/23 03:32:07;;;;;;;13.37;2.77;;;7.30;99.90;;;7.87;100.00;96645.88;4995904;28;20470;-82
2022/11/23 03:34:37;;;;;;;9.27;2.53;;;7.30;99.90;;;7.86;100.00;96641.66;4997641;28;20492;-81
2022/11/23 03:37:07;;;;;;;5.83;2.47;;;7.40;99.90;;;7.88;100.00;96642.28;4996673;28;20499;-82
2022/11/23 03:39:37;;;;;;;11.13;2.60;;;7.40;99.90;;;7.87;100.00;96636.28;4993368;28;20467;-83
2022/11/23 03:42:16;;;;;;;7.90;2.93;;;7.50;99.90;;;7.86;100.00;96639.06;4990995;28;20518;-82
2022/11/23 03:44:45;;;;;;;9.83;2.80;;;7.40;99.90;;;7.85;100.00;96638.25;4993212;28;20462;-82
2022/11/23 03:47:14;;;;;;;10.13;2.90;;;7.40;99.90;;;7.83;100.00;96640.28;4990435;28;20467;-81
2022/11/23 03:49:45;;;;;;;11.90;2.30;;;7.30;99.90;;;7.84;100.00;96633.28;4994243;28;20853;-81
2022/11/23 03:52:15;;;;;;;12.30;3.00;;;7.30;99.90;;;7.84;100.00;96638.47;4992861;28;20551;-82
2022/11/23 03:54:45;;;;;;;12.07;3.20;;;7.30;99.90;;;7.83;100.00;96644.69;4993092;28;20542;-81
2022/11/23 03:57:17;;;;;;;8.80;2.80;;;7.30;99.90;;;7.83;100.00;96634.28;4994599;28;20491;-81
2022/11/23 03:59:47;;;;;;;13.33;2.87;;;7.30;99.90;;;7.83;100.00;96631.66;4994311;28;20463;-81
2022/11/23 04:02:17;;;;;;;12.00;3.50;;;7.30;99.90;;;7.82;100.00;96627.47;4996442;28;20515;-81
2022/11/23 04:04:47;;;;;;;7.00;3.20;;;7.30;99.90;;;7.82;100.00;96624.88;4996387;28;20872;-81
2022/11/23 04:07:17;;;;;;;10.20;3.10;;;7.20;99.90;;;7.79;100.00;96623.47;4996654;28;20564;-81
2022/11/23 04:09:50;;;;;;;4.80;2.30;;;7.30;99.90;;;7.80;100.00;96630.28;4995162;28;20456;-81
2022/11/23 04:12:22;;;;;;;11.20;3.17;;;7.30;99.90;;;7.83;100.00;96629.88;4997119;28;20483;-81
2022/11/23 04:14:52;;;;;;;16.07;3.70;;;7.30;99.90;;;7.82;100.00;96623.06;4995256;28;20491;-81
2022/11/23 04:17:21;;;;;;;11.13;2.80;;;7.40;99.90;;;7.80;100.00;96625.09;4996436;28;20507;-81
2022/11/23 04:19:51;;;;;;;8.20;3.47;;;7.30;99.90;;;7.83;100.00;96626.47;4995930;28;20908;-82
2022/11/23 04:22:20;;;;;;;9.80;2.60;;;7.40;99.90;;;7.82;100.00;96622.25;4996420;28;20554;-81
2022/11/23 04:24:49;;;;;;;10.93;3.50;;;7.40;99.90;;;7.80;100.00;96629.47;4992761;28;21007;-81
2022/11/23 04:27:18;;;;;;;11.43;3.03;;;7.30;99.90;;;7.81;100.00;96615.47;4995292;28;20502;-81
2022/11/23 04:29:49;;;;;;;9.33;3.20;;;7.30;99.90;;;7.78;100.00;96619.25;4997775;28;20482;-81
2022/11/23 04:32:19;;;;;;;6.83;3.73;;;7.30;99.90;;;7.78;100.00;96628.88;4994401;28;20466;-81
2022/11/23 04:34:47;;;;;;;16.70;4.30;;;7.20;99.90;;;7.78;100.00;96628.88;4995337;28;20528;-81
2022/11/23 04:37:16;;;;;;;14.90;3.30;;;7.20;99.90;;;7.73;100.00;96623.50;4994687;28;20496;-81
2022/11/23 04:39:47;;;;;;;14.53;3.30;;;7.20;99.90;;;7.73;100.00;96629.50;4993171;28;20468;-80
2022/11/23 04:42:16;;;;;;;19.13;3.43;;;7.20;99.90;;;7.75;100.00;96622.28;4987284;28;20467;-81
2022/11/23 04:44:48;;;;;;;14.40;3.80;;;7.20;99.90;;;7.77;100.00;96620.28;4990110;28;20472;-81
2022/11/23 04:47:19;;;;;;;10.17;3.47;;;7.30;99.90;;;7.76;100.00;96621.28;4993946;28;20468;-81
2022/11/23 04:49:47;;;;;;;11.77;3.10;;;7.20;99.90;;;7.76;100.00;96625.69;4995128;28;21024;-81
2022/11/23 04:52:17;;;;;;;16.03;3.20;;;7.20;99.90;;;7.79;100.00;96625.28;4991830;28;20569;-82
2022/11/23 04:54:46;;;;;;;9.13;3.10;;;7.20;99.90;;;7.79;100.00;96627.88;4994076;28;20538;-81
2022/11/23 04:57:17;;;;;;;9.50;3.43;;;7.20;99.90;;;7.79;100.00;96628.69;4994301;28;20510;-81
2022/11/23 04:59:48;;;;;;;18.30;3.57;;;7.20;99.90;;;7.82;100.00;96630.06;4994744;28;20997;-81
2022/11/23 05:02:17;;;;;;;25.23;3.43;;;7.30;99.90;;;7.83;100.00;96624.66;4993294;28;20466;-82
2022/11/23 05:04:47;;;;;;;10.37;3.10;;;7.30;99.90;;;7.81;100.00;96633.69;4993766;28;21001;-81
2022/11/23 05:07:16;;;;;;;8.70;3.70;;;7.30;99.90;;;7.80;100.00;96635.50;4992452;28;21057;-81
2022/11/23 05:09:45;;;;;;;7.50;2.77;;;7.30;99.90;;;7.80;100.00;96629.47;4988827;28;20500;-81
2022/11/23 05:12:15;;;;;;;5.00;3.00;;;7.20;99.90;;;7.79;100.00;96625.28;4989977;28;20506;-81
2022/11/23 05:14:44;;;;;;;14.30;3.33;;;7.30;99.90;;;7.80;100.00;96632.09;4993255;28;20471;-81
2022/11/23 05:17:15;;;;;;;16.97;3.40;;;7.20;99.90;;;7.79;100.00;96635.69;4992395;28;21077;-81
2022/11/23 05:19:44;;;;;;;9.37;3.20;;;7.20;99.90;;;7.79;100.00;96638.28;4991097;28;20455;-81
2022/11/23 05:22:16;;;;;;;13.13;2.87;;;7.20;99.90;;;7.81;100.00;96641.50;4990256;28;20563;-81
2022/11/23 05:24:45;;;;;;;6.53;2.70;;;7.30;99.90;;;7.80;100.00;96650.31;4992348;28;20459;-81
2022/11/23 05:27:16;;;;;;;16.77;3.23;;;7.20;99.90;;;7.77;100.00;96635.09;4992359;28;20611;-81
2022/11/23 05:29:46;;;;;;;12.73;3.07;;;7.10;99.90;;;7.79;100.00;96638.28;4988465;28;20482;-81
2022/11/23 05:32:17;;;;;;;13.53;3.70;;;7.20;99.90;;;7.80;100.00;96647.69;4989985;28;20463;-81
2022/11/23 05:34:47;;;;;;;9.13;2.80;;;7.10;99.90;;;7.80;100.00;96645.09;4991817;28;20494;-81
2022/11/23 05:37:16;;;;;;;25.93;3.10;;;7.20;99.90;;;7.81;100.00;96647.47;4994258;28;20479;-81
2022/11/23 05:39:47;;;;;;;8.37;2.70;;;7.30;99.90;;;7.77;100.00;96637.69;4995022;28;20464;-81
2022/11/23 05:42:15;;;;;;;14.23;2.93;;;7.30;99.90;;;7.78;100.00;96641.88;4995572;28;21056;-81
2022/11/23 05:44:44;;;;;;;5.97;3.10;;;7.20;99.90;;;7.78;100.00;96644.47;4996393;28;20958;-81
2022/11/23 05:47:16;;;;;;;13.30;3.43;;;7.20;99.90;;;7.80;100.00;96634.69;4991210;28;20459;-81
2022/11/23 05:49:45;;;;;;;9.13;2.97;;;7.30;99.90;;;7.79;100.00;96638.28;4989922;28;20467;-81
2022/11/23 05:52:15;;;;;;;10.90;3.20;;;7.30;99.90;;;7.79;100.00;96643.50;4990146;28;20514;-81
2022/11/23 05:54:44;;;;;;;11.90;2.90;;;7.20;99.90;;;7.78;100.00;96636.69;4990508;28;20468;-81
2022/11/23 05:57:14;;;;;;;15.27;3.40;;;7.20;99.90;;;7.79;100.00;96633.88;4989461;28;20467;-81
2022/11/23 05:59:43;;;;;;;7.73;3.40;;;7.20;99.90;;;7.80;100.00;96639.91;4989831;28;20602;-81
2022/11/23 06:02:13;;;;;;;9.90;3.20;;;7.30;99.90;;;7.75;100.00;96637.09;4991857;28;20475;-81
2022/11/23 06:04:43;;;;;;;11.50;2.67;;;7.30;99.90;;;7.73;100.00;96644.31;4990676;28;20464;-81
2022/11/23 06:07:13;;;;;;;10.40;3.40;;;7.20;99.90;;;7.74;100.00;96636.28;4994038;28;20514;-81
2022/11/23 06:09:43;;;;;;;13.77;3.00;;;7.20;99.90;;;7.75;100.00;96637.09;4993869;28;20479;-82
2022/11/23 06:12:13;;;;;;;17.70;3.30;;;7.20;99.90;;;7.76;100.00;96638.69;4994434;28;20533;-82
2022/11/23 06:14:42;;;;;;;13.40;3.23;;;7.20;99.90;;;7.77;100.00;96645.50;4996318;28;20468;-81
2022/11/23 06:17:11;;;;;;;9.20;2.77;;;7.20;99.90;;;7.76;100.00;96643.91;4994003;28;21052;-81
2022/11/23 06:19:42;;;;;;;13.97;3.03;;;7.20;99.90;;;7.77;100.00;96648.91;4989457;28;20486;-81
2022/11/23 06:22:11;;;;;;;8.43;3.10;;;7.20;99.90;;;7.75;100.00;96644.91;4991909;28;20476;-82
2022/11/23 06:24:42;;;;;;;6.50;2.63;;;7.20;99.90;;;7.78;100.00;96649.69;4994384;28;20470;-81
2022/11/23 06:27:12;;;;;;;11.00;3.33;;;7.30;99.90;;;7.77;100.00;96648.09;4992059;28;20470;-81
2022/11/23 06:29:45;;;;;;;9.53;2.90;;;7.30;99.90;;;7.76;100.00;96647.31;4993987;28;20557;-81
2022/11/23 06:32:16;;;;;;;5.63;2.80;;;7.20;99.90;;;7.77;100.00;96648.09;4994840;28;20945;-81
2022/11/23 06:34:47;;;;;;;10.00;3.47;;;7.10;99.90;;;7.77;100.00;96650.72;4989970;28;20473;-81
2022/11/23 06:37:17;;;;;;;8.00;3.30;;;7.20;99.90;;;7.79;100.00;96653.91;4991538;28;20874;-81
2022/11/23 06:39:48;;;;;;;9.93;3.00;;;7.20;99.90;;;7.76;100.00;96664.72;4998194;28;20499;-81
2022/11/23 06:42:18;;;;;;;15.30;2.60;;;7.30;99.90;;;7.76;100.00;96662.91;4996759;28;20463;-82
2022/11/23 06:45:08;;;;;;;14.10;3.10;;;7.30;99.90;;;7.76;100.00;96669.91;4994406;28;20466;-81
2022/11/23 06:47:38;;;;;;;7.70;3.40;;;7.20;99.90;;;7.75;100.00;96671.72;4992966;28;20475;-81
2022/11/23 06:50:10;;;;;;;9.50;3.00;;;7.30;99.90;;;7.74;100.00;96671.94;4993288;28;20554;-81
2022/11/23 06:52:40;;;;;;;15.87;3.30;;;7.30;99.90;;;7.72;100.00;96671.31;4994110;28;21032;-81
2022/11/23 06:55:09;;;;;;;18.77;4.53;;;7.20;99.90;;;7.71;100.00;96669.72;4993999;28;20470;-81
2022/11/23 06:57:40;;;;;;;7.80;3.90;;;7.20;99.90;;;7.70;100.00;96671.53;4993565;28;20550;-81
2022/11/23 07:00:12;;;;;;;15.87;3.90;;;7.20;99.90;;;7.65;100.00;96673.94;4997736;28;20501;-81
2022/11/23 07:02:42;;;;;;;12.53;4.10;;;7.10;99.90;;;7.66;100.00;96674.75;4993438;28;20471;-81
2022/11/23 07:05:13;;;;;;;9.30;3.57;;;7.10;99.90;;;7.65;100.00;96679.13;4994123;28;20556;-81
2022/11/23 07:07:42;;;;;;;11.60;3.90;;;7.00;99.90;;;7.63;100.00;96678.56;4996274;28;21064;-81
2022/11/23 07:10:13;;;;;;;11.57;4.00;;;7.10;99.90;;;7.65;100.00;96678.34;4996609;28;20476;-81
2022/11/23 07:12:43;;;;;;;12.20;4.00;;;7.10;99.90;;;7.64;100.00;96680.13;4992871;28;20929;-80
2022/11/23 07:15:13;;;;;;;15.47;4.80;;;7.00;99.90;;;7.62;100.00;96678.75;4990403;28;20502;-79
2022/11/23 07:17:43;;;;;;;10.57;4.10;;;7.10;99.90;;;7.64;100.00;96677.53;4994927;28;20491;-81
2022/11/23 07:20:15;;;;;;;12.27;4.90;;;7.10;99.90;;;7.57;100.00;96682.75;4993310;28;20507;-83
2022/11/23 07:22:45;;;;;;;13.50;5.80;;;7.20;99.90;;;7.56;100.00;96680.38;4993558;28;20463;-82
2022/11/23 07:25:17;;;;;;;9.10;3.80;;;7.00;99.90;;;7.56;100.00;96681.16;4993392;28;20466;-81
2022/11/23 07:27:47;;;;;;;13.03;5.00;;;7.00;99.90;;;7.55;100.00;96676.97;4997149;28;20467;-82
2022/11/23 07:30:20;;;;;;;9.20;3.70;;;7.00;99.90;;;7.56;100.00;96680.38;4997830;28;20522;-82
2022/11/23 07:33:01;;;;;;;16.50;3.97;;;6.90;99.90;;;7.57;100.00;96687.94;4995761;28;20471;-82
2022/11/23 07:35:32;;;;;;;5.80;3.33;;;6.90;99.90;;;7.55;100.00;96683.97;4998072;28;20464;-82
2022/11/23 07:38:02;;;;;;;11.73;3.60;;;6.90;99.90;;;7.54;100.00;96688.34;4996772;28;20471;-82
2022/11/23 07:40:35;;;;;;;10.27;3.50;;;6.90;99.90;;;7.56;100.00;96680.38;4995912;28;20658;-81
2022/11/23 07:43:06;;;;;;;17.77;4.87;;;6.90;99.90;;;7.59;100.00;96685.97;4996539;28;20496;-82
2022/11/23 07:45:37;;;;;;;21.43;4.70;;;7.00;99.90;;;7.60;100.00;96687.53;4994004;28;20517;-82
2022/11/23 07:48:09;;;;;;;24.33;4.00;;;7.10;99.90;;;7.59;100.00;96685.97;4990541;28;20464;-81
2022/11/23 07:50:40;;;;;;;9.33;3.20;;;7.10;99.90;;;7.57;100.00;96687.13;4996714;28;20562;-82
2022/11/23 07:53:11;;;;;;;13.13;3.90;;;7.10;99.90;;;7.55;100.00;96689.16;4996229;28;20506;-81
2022/11/23 07:55:41;;;;;;;12.97;3.60;;;7.10;99.90;;;7.57;100.00;96687.94;4999161;28;20498;-82
2022/11/23 07:58:11;;;;;;;14.63;4.50;;;7.10;99.90;;;7.59;100.00;96700.75;4988041;28;20570;-82
2022/11/23 08:00:41;;;;;;;20.63;3.30;;;7.10;99.90;;;7.59;100.00;96698.16;4990538;28;20587;-82
2022/11/23 08:03:14;;;;;;;21.43;3.60;;;7.10;99.90;;;7.54;100.00;96696.16;4992397;28;20507;-81
2022/11/23 08:06:00;;;;;;;12.07;3.10;;;7.10;99.90;;;7.57;100.00;96695.75;4993385;28;20514;-82
2022/11/23 08:08:29;;;;;;;8.63;2.70;;;7.20;99.90;;;7.56;100.00;96693.38;4987643;28;20469;-81
2022/11/23 08:10:59;;;;;;;7.97;3.20;;;7.10;99.90;;;7.55;100.00;96695.16;4991644;28;21209;-82
2022/11/23 08:13:30;;;;;;;21.30;3.30;;;7.10;99.90;;;7.58;100.00;96699.16;4992194;28;20456;-82
2022/11/23 08:16:02;;;;;;;7.47;2.80;;;7.10;99.90;;;7.57;100.00;96698.34;4992158;28;20892;-81
2022/11/23 08:18:32;;;;;;;10.70;3.33;;;7.00;99.90;;;7.58;100.00;96696.56;4993083;28;20471;-81
2022/11/23 08:21:04;;;;;;;5.70;2.27;;;7.00;99.90;;;7.60;100.00;96690.13;4991901;28;20495;-81
2022/11/23 08:23:33;;;;;;;5.13;2.43;;;7.10;99.90;;;7.58;100.00;96694.75;4989582;28;20482;-81
2022/11/23 08:26:03;;;;;;;14.60;2.90;;;7.00;99.90;;;7.64;100.00;96697.53;4986812;28;20471;-82
2022/11/23 08:28:40;;;;;;;14.83;2.97;;;7.10;99.90;;;7.64;100.00;96692.34;4989019;28;20471;-82
2022/11/23 08:31:13;;;;;;;8.73;2.43;;;7.20;99.90;;;7.62;100.00;96699.56;4991934;28;20472;-81
2022/11/23 08:33:43;;;;;;;9.07;3.30;;;7.10;99.90;;;7.65;100.00;96697.34;4990067;28;21177;-82
2022/11/23 08:36:15;;;;;;;11.87;3.30;;;7.10;99.90;;;7.63;100.00;96703.75;4989816;28;20495;-81
2022/11/23 08:38:50;;;;;;;11.80;2.60;;;7.10;99.90;;;7.60;100.00;96710.94;4992609;28;20459;-82
2022/11/23 08:41:20;;;;;;;4.73;2.07;;;7.10;99.90;;;7.60;100.00;96704.97;4991668;28;21083;-82
2022/11/23 08:43:49;;;;;;;18.40;6.83;;;7.10;99.90;;;7.57;100.00;96716.56;4990815;28;21691;-81
2022/11/23 08:46:19;;;;;;;5.83;2.30;;;7.00;99.90;;;7.59;100.00;96717.19;4990368;28;20549;-81
2022/11/23 08:48:49;;;;;;;7.57;2.50;;;7.10;99.90;;;7.56;100.00;96701.97;4993643;28;20471;-82
2022/11/23 08:51:21;;;;;;;9.47;2.47;;;7.10;99.90;;;7.58;100.00;96717.38;4990465;28;20507;-82
2022/11/23 08:53:51;;;;;;;7.83;2.40;;;7.10;99.90;;;7.56;100.00;96714.97;4992162;28;20510;-82
2022/11/23 08:56:22;;;;;;;8.30;2.67;;;7.00;99.90;;;7.57;100.00;96707.94;4991504;28;20479;-82
2022/11/23 08:58:51;;;;;;;7.23;2.60;;;7.10;99.90;;;7.51;100.00;96709.56;4990961;28;20459;-81
2022/11/23 09:01:21;;;;;;;12.23;3.20;;;7.10;99.90;;;7.52;100.00;96710.38;4987986;28;20498;-80
2022/11/23 09:03:53;;;;;;;9.33;2.37;;;7.00;99.90;;;7.56;100.00;96716.78;4989511;28;20464;-80
2022/11/23 09:06:27;;;;;;;10.53;2.60;;;7.00;99.90;;;7.57;100.00;96726.16;4990260;28;20699;-80
2022/11/23 09:08:56;;;;;;;16.40;2.70;;;7.00;99.90;;;7.54;100.00;96719.56;4992971;28;20544;-81
2022/11/23 09:11:26;;;;;;;9.63;3.13;;;7.10;99.90;;;7.59;100.00;96709.38;4991916;28;20553;-81
2022/11/23 09:13:57;;;;;;;21.07;2.80;;;7.10;99.90;;;7.56;100.00;96722.78;4989978;28;20482;-80
2022/11/23 09:16:25;;;;;;;6.40;2.47;;;7.10;99.90;;;7.54;100.00;96719.56;4989724;28;20511;-81
2022/11/23 09:19:02;;;;;;;9.00;2.60;;;7.10;99.90;;;7.55;100.00;96715.16;4993301;28;20521;-81
2022/11/23 09:21:34;;;;;;;10.63;2.80;;;7.10;99.90;;;7.57;100.00;96718.34;4989762;28;20580;-80
2022/11/23 09:24:05;;;;;;;6.27;2.40;;;7.10;99.90;;;7.53;100.00;96707.56;4992230;28;20467;-81
2022/11/23 09:26:36;;;;;;;4.13;2.30;;;7.00;99.90;;;7.54;100.00;96703.97;4992365;28;20487;-81
2022/11/23 09:29:06;;;;;;;15.43;2.30;;;7.00;99.90;;;7.53;100.00;96710.16;4990761;28;20892;-81
2022/11/23 09:31:36;;;;;;;8.00;2.77;;;7.10;99.90;;;7.56;100.00;96714.97;4992644;28;20480;-81
2022/11/23 09:34:06;;;;;;;9.93;3.10;;;7.00;99.90;;;7.55;100.00;96713.38;4992448;28;20566;-81
2022/11/23 09:36:37;;;;;;;8.57;2.60;;;7.10;99.90;;;7.62;100.00;96705.56;4994858;28;20518;-82
2022/11/23 09:39:08;;;;;;;6.30;2.47;;;7.10;99.90;;;7.65;100.00;96714.75;4989993;28;20468;-81
2022/11/23 09:42:15;;;;;;;6.53;2.20;;;7.20;99.90;;;7.67;100.00;96713.53;4991704;28;20912;-81
2022/11/23 09:45:11;;;;;;;12.63;2.97;;;7.10;99.90;;;7.68;100.00;96709.16;4970627;28;20558;-81
2022/11/23 09:48:15;;;;;;;8.40;2.77;;;7.20;99.90;;;7.68;100.00;96709.16;4988868;28;20460;-81
2022/11/23 09:50:51;;;;;;;4.17;2.03;;;7.10;99.90;;;7.72;100.00;96715.56;4989084;28;20571;-81
2022/11/23 09:53:32;;;;;;;7.57;2.80;;;7.20;99.90;;;7.73;100.00;96707.56;4993831;28;20478;-81
2022/11/23 09:56:04;;;;;;;15.90;2.43;;;7.20;99.90;;;7.79;100.00;96708.53;4996957;28;20518;-81
2022/11/23 09:58:40;;;;;;;4.03;1.90;;;7.30;99.90;;;7.79;100.00;96706.75;4992050;28;20554;-81
2022/11/23 10:01:16;;;;;;;6.07;1.90;;;7.20;99.90;;;7.80;100.00;96704.94;4996890;28;20558;-81
2022/11/23 10:03:46;;;;;;;5.90;2.00;;;7.30;99.90;;;7.82;100.00;96693.31;4996499;28;20498;-81
2022/11/23 10:06:24;;;;;;;5.67;2.33;;;7.40;99.90;;;7.76;100.00;96685.53;4991190;28;20471;-82
2022/11/23 10:09:24;;;;;;;9.93;2.90;;;7.20;99.90;;;7.77;100.00;96687.13;4995107;28;20497;-81
2022/11/23 10:12:44;;;;;;;7.57;2.37;;;7.30;99.90;;;7.75;100.00;96682.13;4995930;28;21009;-81
2022/11/23 10:15:24;;;;;;;11.53;2.10;;;7.30;99.90;;;7.77;100.00;96676.72;4993309;28;20478;-81
2022/11/23 10:18:25;;;;;;;79.07;39.17;;;7.30;99.90;;;7.76;100.00;96669.91;4995540;28;20481;-82
2022/11/23 10:21:04;;;;;;;13.83;4.40;;;7.30;99.90;;;7.78;100.00;96670.50;4997563;28;20489;-81
2022/11/23 10:23:56;;;;;;;2.23;1.90;;;7.20;99.90;;;7.79;100.00;96662.50;4994465;28;20479;-81
2022/11/23 10:26:33;;;;;;;5.70;2.40;;;7.20;99.90;;;7.82;100.00;96659.50;4992172;28;20466;-82
2022/11/23 10:29:15;;;;;;;11.33;2.23;;;7.20;99.90;;;7.82;100.00;96648.28;4996603;28;20881;-81
2022/11/23 10:31:49;;;;;;;34.73;15.03;;;7.30;99.90;;;7.83;100.00;96649.88;4992384;28;20501;-79
2022/11/23 10:34:47;;;;;;;2.33;1.80;;;7.30;99.90;;;7.84;100.00;96652.31;4998260;28;20455;-81
2022/11/23 10:37:18;;;;;;;7.47;2.17;;;7.20;99.90;;;7.91;100.00;96647.06;4994854;28;20543;-82
2022/11/23 10:39:48;;;;;;;8.30;2.40;;;7.40;99.90;;;7.95;100.00;96649.03;4998431;28;20474;-82
2022/11/23 10:42:28;;;;;;;4.40;1.80;;;7.40;99.90;;;8.01;100.00;96652.66;4999768;28;20462;-83
2022/11/23 10:45:00;;;;;;;6.10;2.03;;;7.50;99.90;;;7.99;100.00;96652.03;5000566;28;21035;-82